sensor_id;sensor_type;location;lat;lon;timestamp;temperature;humidity
6375;DHT22;35400;45.472;-122.822;2022-09-09T00:01:21;26.40;45.40
6375;DHT22;35400;45.472;-122.822;2022-09-09T00:03:54;26.40;44.80
6375;DHT22;35400;45.472;-122.822;2022-09-09T00:06:59;26.30;44.30
6375;DHT22;35400;45.472;-122.822;2022-09-09T00:09:25;26.30;45.70
6375;DHT22;35400;45.472;-122.822;2022-09-09T00:12:15;26.30;45.20
6375;DHT22;35400;45.472;-122.822;2022-09-09T00:15:14;26.20;45.60
6375;DHT22;35400;45.472;-122.822;2022-09-09T00:20:36;26.20;45.30
6375;DHT22;35400;45.472;-122.822;2022-09-09T00:25:47;26.10;47.10
6375;DHT22;35400;45.472;-122.822;2022-09-09T00:28:23;26.10;48.10
6375;DHT22;35400;45.472;-122.822;2022-09-09T00:30:51;26.10;48.60
6375;DHT22;35400;45.472;-122.822;2022-09-09T00:33:20;26.00;47.70
6375;DHT22;35400;45.472;-122.822;2022-09-09T00:35:54;25.90;47.30
6375;DHT22;35400;45.472;-122.822;2022-09-09T00:38:27;25.90;47.10
6375;DHT22;35400;45.472;-122.822;2022-09-09T00:41:03;25.90;46.90
6375;DHT22;35400;45.472;-122.822;2022-09-09T00:43:37;25.80;47.00
6375;DHT22;35400;45.472;-122.822;2022-09-09T00:49:25;25.70;46.60
6375;DHT22;35400;45.472;-122.822;2022-09-09T00:57:34;25.50;49.80
6375;DHT22;35400;45.472;-122.822;2022-09-09T01:03:30;25.40;49.70
6375;DHT22;35400;45.472;-122.822;2022-09-09T01:06:14;25.30;50.50
6375;DHT22;35400;45.472;-122.822;2022-09-09T01:19:55;25.20;53.30
6375;DHT22;35400;45.472;-122.822;2022-09-09T01:28:25;25.00;54.10
6375;DHT22;35400;45.472;-122.822;2022-09-09T01:30:57;24.90;54.10
6375;DHT22;35400;45.472;-122.822;2022-09-09T01:33:28;24.80;54.20
6375;DHT22;35400;45.472;-122.822;2022-09-09T01:36:12;24.80;54.40
6375;DHT22;35400;45.472;-122.822;2022-09-09T01:38:48;24.70;54.70
6375;DHT22;35400;45.472;-122.822;2022-09-09T01:41:16;24.60;54.40
6375;DHT22;35400;45.472;-122.822;2022-09-09T01:43:49;24.60;55.00
6375;DHT22;35400;45.472;-122.822;2022-09-09T01:46:20;24.50;55.40
6375;DHT22;35400;45.472;-122.822;2022-09-09T01:48:49;24.50;54.60
6375;DHT22;35400;45.472;-122.822;2022-09-09T01:51:16;24.40;55.20
6375;DHT22;35400;45.472;-122.822;2022-09-09T01:53:43;24.40;54.80
6375;DHT22;35400;45.472;-122.822;2022-09-09T01:56:25;24.30;54.80
6375;DHT22;35400;45.472;-122.822;2022-09-09T02:02:11;24.20;55.70
6375;DHT22;35400;45.472;-122.822;2022-09-09T02:04:50;24.20;56.10
6375;DHT22;35400;45.472;-122.822;2022-09-09T02:07:47;24.00;55.70
6375;DHT22;35400;45.472;-122.822;2022-09-09T02:10:59;24.00;55.60
6375;DHT22;35400;45.472;-122.822;2022-09-09T02:13:40;23.90;55.70
6375;DHT22;35400;45.472;-122.822;2022-09-09T02:21:56;23.70;56.60
6375;DHT22;35400;45.472;-122.822;2022-09-09T02:24:25;23.70;57.20
6375;DHT22;35400;45.472;-122.822;2022-09-09T02:27:07;23.60;57.10
6375;DHT22;35400;45.472;-122.822;2022-09-09T02:29:40;23.50;57.20
6375;DHT22;35400;45.472;-122.822;2022-09-09T02:32:20;23.40;57.00
6375;DHT22;35400;45.472;-122.822;2022-09-09T02:34:54;23.30;57.20
6375;DHT22;35400;45.472;-122.822;2022-09-09T02:37:25;23.30;57.40
6375;DHT22;35400;45.472;-122.822;2022-09-09T02:39:55;23.20;57.60
6375;DHT22;35400;45.472;-122.822;2022-09-09T02:42:25;23.10;57.60
6375;DHT22;35400;45.472;-122.822;2022-09-09T02:44:54;23.10;58.00
6375;DHT22;35400;45.472;-122.822;2022-09-09T02:50:20;22.90;58.40
6375;DHT22;35400;45.472;-122.822;2022-09-09T02:55:39;22.70;58.30
6375;DHT22;35400;45.472;-122.822;2022-09-09T02:58:13;22.70;58.30
6375;DHT22;35400;45.472;-122.822;2022-09-09T03:00:49;22.60;58.30
6375;DHT22;35400;45.472;-122.822;2022-09-09T03:03:18;22.50;58.30
6375;DHT22;35400;45.472;-122.822;2022-09-09T03:05:48;22.50;58.70
6375;DHT22;35400;45.472;-122.822;2022-09-09T03:08:16;22.40;58.50
6375;DHT22;35400;45.472;-122.822;2022-09-09T03:10:44;22.40;58.30
6375;DHT22;35400;45.472;-122.822;2022-09-09T03:13:14;22.30;58.40
6375;DHT22;35400;45.472;-122.822;2022-09-09T03:15:42;22.20;58.20
6375;DHT22;35400;45.472;-122.822;2022-09-09T03:18:14;22.20;58.30
6375;DHT22;35400;45.472;-122.822;2022-09-09T03:20:41;22.10;58.50
6375;DHT22;35400;45.472;-122.822;2022-09-09T03:23:08;22.10;58.50
6375;DHT22;35400;45.472;-122.822;2022-09-09T03:25:35;22.00;58.40
6375;DHT22;35400;45.472;-122.822;2022-09-09T03:28:02;21.90;58.00
6375;DHT22;35400;45.472;-122.822;2022-09-09T03:30:29;21.90;58.00
6375;DHT22;35400;45.472;-122.822;2022-09-09T03:32:56;21.80;58.10
6375;DHT22;35400;45.472;-122.822;2022-09-09T03:35:29;21.80;58.20
6375;DHT22;35400;45.472;-122.822;2022-09-09T03:37:56;21.80;58.30
6375;DHT22;35400;45.472;-122.822;2022-09-09T03:40:23;21.70;58.10
6375;DHT22;35400;45.472;-122.822;2022-09-09T03:42:49;21.70;58.20
6375;DHT22;35400;45.472;-122.822;2022-09-09T03:45:17;21.60;58.10
6375;DHT22;35400;45.472;-122.822;2022-09-09T03:47:44;21.60;58.00
6375;DHT22;35400;45.472;-122.822;2022-09-09T03:50:12;21.60;58.20
6375;DHT22;35400;45.472;-122.822;2022-09-09T03:52:45;21.50;58.00
6375;DHT22;35400;45.472;-122.822;2022-09-09T03:55:20;21.50;58.30
6375;DHT22;35400;45.472;-122.822;2022-09-09T03:57:47;21.40;57.90
6375;DHT22;35400;45.472;-122.822;2022-09-09T04:00:14;21.40;58.10
6375;DHT22;35400;45.472;-122.822;2022-09-09T04:02:49;21.30;58.30
6375;DHT22;35400;45.472;-122.822;2022-09-09T04:05:17;21.30;58.50
6375;DHT22;35400;45.472;-122.822;2022-09-09T04:07:46;21.30;58.50
6375;DHT22;35400;45.472;-122.822;2022-09-09T04:10:13;21.20;58.50
6375;DHT22;35400;45.472;-122.822;2022-09-09T04:12:42;21.10;59.40
6375;DHT22;35400;45.472;-122.822;2022-09-09T04:15:10;21.20;58.70
6375;DHT22;35400;45.472;-122.822;2022-09-09T04:17:38;21.10;58.50
6375;DHT22;35400;45.472;-122.822;2022-09-09T04:20:06;21.10;58.80
6375;DHT22;35400;45.472;-122.822;2022-09-09T04:22:37;21.00;59.00
6375;DHT22;35400;45.472;-122.822;2022-09-09T04:25:06;21.00;59.00
6375;DHT22;35400;45.472;-122.822;2022-09-09T04:27:33;20.90;59.40
6375;DHT22;35400;45.472;-122.822;2022-09-09T04:30:00;20.90;59.30
6375;DHT22;35400;45.472;-122.822;2022-09-09T04:32:33;20.90;58.80
6375;DHT22;35400;45.472;-122.822;2022-09-09T04:34:59;20.80;58.80
6375;DHT22;35400;45.472;-122.822;2022-09-09T04:37:26;20.80;58.80
6375;DHT22;35400;45.472;-122.822;2022-09-09T04:39:54;20.80;58.80
6375;DHT22;35400;45.472;-122.822;2022-09-09T04:42:22;20.70;58.70
6375;DHT22;35400;45.472;-122.822;2022-09-09T04:44:51;20.70;57.90
6375;DHT22;35400;45.472;-122.822;2022-09-09T04:47:23;20.60;58.20
6375;DHT22;35400;45.472;-122.822;2022-09-09T04:49:50;20.60;58.30
6375;DHT22;35400;45.472;-122.822;2022-09-09T04:52:18;20.60;58.30
6375;DHT22;35400;45.472;-122.822;2022-09-09T04:54:45;20.50;57.80
6375;DHT22;35400;45.472;-122.822;2022-09-09T04:57:12;20.50;57.90
6375;DHT22;35400;45.472;-122.822;2022-09-09T04:59:39;20.40;57.80
6375;DHT22;35400;45.472;-122.822;2022-09-09T05:02:06;20.40;57.70
6375;DHT22;35400;45.472;-122.822;2022-09-09T05:04:35;20.30;57.60
6375;DHT22;35400;45.472;-122.822;2022-09-09T05:07:03;20.30;57.90
6375;DHT22;35400;45.472;-122.822;2022-09-09T05:09:30;20.30;58.20
6375;DHT22;35400;45.472;-122.822;2022-09-09T05:11:57;20.20;57.90
6375;DHT22;35400;45.472;-122.822;2022-09-09T05:14:35;20.20;57.40
6375;DHT22;35400;45.472;-122.822;2022-09-09T05:17:04;20.10;57.50
6375;DHT22;35400;45.472;-122.822;2022-09-09T05:19:33;20.10;57.60
6375;DHT22;35400;45.472;-122.822;2022-09-09T05:22:00;20.10;57.80
6375;DHT22;35400;45.472;-122.822;2022-09-09T05:24:35;20.00;57.60
6375;DHT22;35400;45.472;-122.822;2022-09-09T05:27:04;20.00;57.80
6375;DHT22;35400;45.472;-122.822;2022-09-09T05:29:33;20.00;58.00
6375;DHT22;35400;45.472;-122.822;2022-09-09T05:32:00;19.90;57.80
6375;DHT22;35400;45.472;-122.822;2022-09-09T05:34:27;19.90;58.00
6375;DHT22;35400;45.472;-122.822;2022-09-09T05:36:53;19.80;58.00
6375;DHT22;35400;45.472;-122.822;2022-09-09T05:39:22;19.80;58.20
6375;DHT22;35400;45.472;-122.822;2022-09-09T05:41:48;19.70;58.40
6375;DHT22;35400;45.472;-122.822;2022-09-09T05:44:15;19.70;59.20
6375;DHT22;35400;45.472;-122.822;2022-09-09T05:46:43;19.60;58.60
6375;DHT22;35400;45.472;-122.822;2022-09-09T05:49:12;19.60;58.60
6375;DHT22;35400;45.472;-122.822;2022-09-09T05:51:41;19.60;58.50
6375;DHT22;35400;45.472;-122.822;2022-09-09T05:54:11;19.50;59.00
6375;DHT22;35400;45.472;-122.822;2022-09-09T05:56:45;19.50;58.90
6375;DHT22;35400;45.472;-122.822;2022-09-09T05:59:12;19.50;59.30
6375;DHT22;35400;45.472;-122.822;2022-09-09T06:01:39;19.40;59.10
6375;DHT22;35400;45.472;-122.822;2022-09-09T06:04:09;19.40;59.40
6375;DHT22;35400;45.472;-122.822;2022-09-09T06:06:38;19.40;59.50
6375;DHT22;35400;45.472;-122.822;2022-09-09T06:09:11;19.30;59.90
6375;DHT22;35400;45.472;-122.822;2022-09-09T06:11:42;19.30;60.00
6375;DHT22;35400;45.472;-122.822;2022-09-09T06:14:10;19.20;60.20
6375;DHT22;35400;45.472;-122.822;2022-09-09T06:16:38;19.20;60.40
6375;DHT22;35400;45.472;-122.822;2022-09-09T06:19:11;19.20;60.50
6375;DHT22;35400;45.472;-122.822;2022-09-09T06:21:39;19.20;60.70
6375;DHT22;35400;45.472;-122.822;2022-09-09T06:24:08;19.10;60.70
6375;DHT22;35400;45.472;-122.822;2022-09-09T06:26:38;19.10;61.00
6375;DHT22;35400;45.472;-122.822;2022-09-09T06:29:10;19.00;61.40
6375;DHT22;35400;45.472;-122.822;2022-09-09T06:31:38;19.00;61.90
6375;DHT22;35400;45.472;-122.822;2022-09-09T06:34:11;18.90;62.70
6375;DHT22;35400;45.472;-122.822;2022-09-09T06:36:41;18.90;63.30
6375;DHT22;35400;45.472;-122.822;2022-09-09T06:39:08;18.80;63.70
6375;DHT22;35400;45.472;-122.822;2022-09-09T06:41:38;18.70;64.60
6375;DHT22;35400;45.472;-122.822;2022-09-09T06:44:08;18.60;64.90
6375;DHT22;35400;45.472;-122.822;2022-09-09T06:46:40;18.60;65.20
6375;DHT22;35400;45.472;-122.822;2022-09-09T06:49:08;18.50;65.40
6375;DHT22;35400;45.472;-122.822;2022-09-09T06:51:37;18.40;65.80
6375;DHT22;35400;45.472;-122.822;2022-09-09T06:54:13;18.30;65.90
6375;DHT22;35400;45.472;-122.822;2022-09-09T06:56:43;18.30;66.10
6375;DHT22;35400;45.472;-122.822;2022-09-09T06:59:21;18.20;66.20
6375;DHT22;35400;45.472;-122.822;2022-09-09T07:01:48;18.10;66.20
6375;DHT22;35400;45.472;-122.822;2022-09-09T07:04:17;18.10;66.40
6375;DHT22;35400;45.472;-122.822;2022-09-09T07:06:45;18.00;66.60
6375;DHT22;35400;45.472;-122.822;2022-09-09T07:09:17;18.00;67.00
6375;DHT22;35400;45.472;-122.822;2022-09-09T07:11:50;17.90;67.20
6375;DHT22;35400;45.472;-122.822;2022-09-09T07:14:23;17.90;67.50
6375;DHT22;35400;45.472;-122.822;2022-09-09T07:17:02;17.80;67.60
6375;DHT22;35400;45.472;-122.822;2022-09-09T07:19:35;17.80;68.20
6375;DHT22;35400;45.472;-122.822;2022-09-09T07:22:05;17.70;68.60
6375;DHT22;35400;45.472;-122.822;2022-09-09T07:24:34;17.60;68.90
6375;DHT22;35400;45.472;-122.822;2022-09-09T07:27:00;17.60;69.30
6375;DHT22;35400;45.472;-122.822;2022-09-09T07:29:29;17.60;69.70
6375;DHT22;35400;45.472;-122.822;2022-09-09T07:31:56;17.50;69.70
6375;DHT22;35400;45.472;-122.822;2022-09-09T07:34:29;17.50;69.80
6375;DHT22;35400;45.472;-122.822;2022-09-09T07:36:56;17.50;70.10
6375;DHT22;35400;45.472;-122.822;2022-09-09T07:39:23;17.40;70.80
6375;DHT22;35400;45.472;-122.822;2022-09-09T07:41:53;17.30;71.40
6375;DHT22;35400;45.472;-122.822;2022-09-09T07:44:24;17.30;72.10
6375;DHT22;35400;45.472;-122.822;2022-09-09T07:47:02;17.30;72.10
6375;DHT22;35400;45.472;-122.822;2022-09-09T07:49:34;17.30;72.40
6375;DHT22;35400;45.472;-122.822;2022-09-09T07:52:03;17.20;72.30
6375;DHT22;35400;45.472;-122.822;2022-09-09T07:54:31;17.20;72.40
6375;DHT22;35400;45.472;-122.822;2022-09-09T07:57:00;17.20;72.70
6375;DHT22;35400;45.472;-122.822;2022-09-09T07:59:29;17.10;73.00
6375;DHT22;35400;45.472;-122.822;2022-09-09T08:01:57;17.10;73.20
6375;DHT22;35400;45.472;-122.822;2022-09-09T08:04:28;17.00;73.20
6375;DHT22;35400;45.472;-122.822;2022-09-09T08:06:58;17.00;73.40
6375;DHT22;35400;45.472;-122.822;2022-09-09T08:09:27;16.90;73.50
6375;DHT22;35400;45.472;-122.822;2022-09-09T08:12:05;16.90;73.90
6375;DHT22;35400;45.472;-122.822;2022-09-09T08:14:34;16.90;74.30
6375;DHT22;35400;45.472;-122.822;2022-09-09T08:17:01;16.80;74.60
6375;DHT22;35400;45.472;-122.822;2022-09-09T08:19:31;16.80;74.50
6375;DHT22;35400;45.472;-122.822;2022-09-09T08:22:00;16.80;74.50
6375;DHT22;35400;45.472;-122.822;2022-09-09T08:24:28;16.70;74.40
6375;DHT22;35400;45.472;-122.822;2022-09-09T08:26:55;16.70;74.50
6375;DHT22;35400;45.472;-122.822;2022-09-09T08:29:23;16.70;74.60
6375;DHT22;35400;45.472;-122.822;2022-09-09T08:31:55;16.60;74.60
6375;DHT22;35400;45.472;-122.822;2022-09-09T08:34:24;16.60;74.80
6375;DHT22;35400;45.472;-122.822;2022-09-09T08:36:54;16.50;74.80
6375;DHT22;35400;45.472;-122.822;2022-09-09T08:39:27;16.50;74.90
6375;DHT22;35400;45.472;-122.822;2022-09-09T08:50:22;16.30;76.40
6375;DHT22;35400;45.472;-122.822;2022-09-09T08:53:02;16.20;76.70
6375;DHT22;35400;45.472;-122.822;2022-09-09T08:55:51;16.20;76.80
6375;DHT22;35400;45.472;-122.822;2022-09-09T08:58:32;16.20;77.00
6375;DHT22;35400;45.472;-122.822;2022-09-09T09:11:39;15.90;77.80
6375;DHT22;35400;45.472;-122.822;2022-09-09T09:14:24;15.90;78.00
6375;DHT22;35400;45.472;-122.822;2022-09-09T09:17:06;15.80;78.10
6375;DHT22;35400;45.472;-122.822;2022-09-09T09:19:39;15.80;78.30
6375;DHT22;35400;45.472;-122.822;2022-09-09T09:25:04;15.70;78.40
6375;DHT22;35400;45.472;-122.822;2022-09-09T09:30:26;15.60;79.30
6375;DHT22;35400;45.472;-122.822;2022-09-09T09:33:25;15.60;79.30
6375;DHT22;35400;45.472;-122.822;2022-09-09T09:35:53;15.50;79.40
6375;DHT22;35400;45.472;-122.822;2022-09-09T09:38:24;15.50;79.70
6375;DHT22;35400;45.472;-122.822;2022-09-09T09:40:57;15.40;79.80
6375;DHT22;35400;45.472;-122.822;2022-09-09T09:43:30;15.40;80.10
6375;DHT22;35400;45.472;-122.822;2022-09-09T09:46:00;15.40;80.30
6375;DHT22;35400;45.472;-122.822;2022-09-09T09:48:29;15.30;80.30
6375;DHT22;35400;45.472;-122.822;2022-09-09T09:51:01;15.30;80.30
6375;DHT22;35400;45.472;-122.822;2022-09-09T09:53:33;15.30;80.40
6375;DHT22;35400;45.472;-122.822;2022-09-09T09:58:38;15.20;80.60
6375;DHT22;35400;45.472;-122.822;2022-09-09T10:01:31;15.20;80.80
6375;DHT22;35400;45.472;-122.822;2022-09-09T10:04:22;15.10;80.90
6375;DHT22;35400;45.472;-122.822;2022-09-09T10:06:54;15.10;81.10
6375;DHT22;35400;45.472;-122.822;2022-09-09T10:27:27;14.80;82.10
6375;DHT22;35400;45.472;-122.822;2022-09-09T10:35:20;14.70;83.10
6375;DHT22;35400;45.472;-122.822;2022-09-09T10:43:37;14.60;83.90
6375;DHT22;35400;45.472;-122.822;2022-09-09T10:54:47;14.40;84.80
6375;DHT22;35400;45.472;-122.822;2022-09-09T10:59:52;14.40;85.40
6375;DHT22;35400;45.472;-122.822;2022-09-09T11:02:31;14.40;85.50
6375;DHT22;35400;45.472;-122.822;2022-09-09T11:05:20;14.30;85.60
6375;DHT22;35400;45.472;-122.822;2022-09-09T11:13:26;14.30;86.30
6375;DHT22;35400;45.472;-122.822;2022-09-09T11:18:47;14.20;86.70
6375;DHT22;35400;45.472;-122.822;2022-09-09T11:21:24;14.10;86.80
6375;DHT22;35400;45.472;-122.822;2022-09-09T11:24:04;14.10;87.30
6375;DHT22;35400;45.472;-122.822;2022-09-09T11:26:44;14.10;87.40
6375;DHT22;35400;45.472;-122.822;2022-09-09T11:30:33;14.10;87.70
6375;DHT22;35400;45.472;-122.822;2022-09-09T11:35:50;14.00;88.10
6375;DHT22;35400;45.472;-122.822;2022-09-09T11:38:38;13.90;89.00
6375;DHT22;35400;45.472;-122.822;2022-09-09T11:41:08;13.90;88.40
6375;DHT22;35400;45.472;-122.822;2022-09-09T11:43:41;13.80;88.60
6375;DHT22;35400;45.472;-122.822;2022-09-09T11:46:10;13.80;88.80
6375;DHT22;35400;45.472;-122.822;2022-09-09T11:48:43;13.70;88.90
6375;DHT22;35400;45.472;-122.822;2022-09-09T11:51:12;13.70;89.10
6375;DHT22;35400;45.472;-122.822;2022-09-09T11:53:51;13.70;89.20
6375;DHT22;35400;45.472;-122.822;2022-09-09T11:56:44;13.60;89.40
6375;DHT22;35400;45.472;-122.822;2022-09-09T11:59:34;13.60;89.90
6375;DHT22;35400;45.472;-122.822;2022-09-09T12:05:02;13.50;90.40
6375;DHT22;35400;45.472;-122.822;2022-09-09T12:12:47;13.40;90.70
6375;DHT22;35400;45.472;-122.822;2022-09-09T12:15:24;13.30;90.80
6375;DHT22;35400;45.472;-122.822;2022-09-09T12:17:57;13.30;91.00
6375;DHT22;35400;45.472;-122.822;2022-09-09T12:20:33;13.20;91.00
6375;DHT22;35400;45.472;-122.822;2022-09-09T12:23:25;13.20;91.20
6375;DHT22;35400;45.472;-122.822;2022-09-09T12:29:12;13.10;91.60
6375;DHT22;35400;45.472;-122.822;2022-09-09T12:34:14;13.10;91.80
6375;DHT22;35400;45.472;-122.822;2022-09-09T12:36:43;13.00;91.90
6375;DHT22;35400;45.472;-122.822;2022-09-09T12:39:32;13.00;92.10
6375;DHT22;35400;45.472;-122.822;2022-09-09T12:41:59;12.90;92.30
6375;DHT22;35400;45.472;-122.822;2022-09-09T12:44:27;12.90;92.50
6375;DHT22;35400;45.472;-122.822;2022-09-09T12:47:00;12.90;92.60
6375;DHT22;35400;45.472;-122.822;2022-09-09T12:49:34;12.90;92.70
6375;DHT22;35400;45.472;-122.822;2022-09-09T12:52:30;12.80;93.00
6375;DHT22;35400;45.472;-122.822;2022-09-09T12:55:01;12.80;93.00
6375;DHT22;35400;45.472;-122.822;2022-09-09T12:57:36;12.80;93.10
6375;DHT22;35400;45.472;-122.822;2022-09-09T13:00:15;12.70;93.20
6375;DHT22;35400;45.472;-122.822;2022-09-09T13:02:56;12.70;93.50
6375;DHT22;35400;45.472;-122.822;2022-09-09T13:05:36;12.70;93.60
6375;DHT22;35400;45.472;-122.822;2022-09-09T13:08:09;12.70;93.80
6375;DHT22;35400;45.472;-122.822;2022-09-09T13:11:00;12.60;94.00
6375;DHT22;35400;45.472;-122.822;2022-09-09T13:13:39;12.60;94.10
6375;DHT22;35400;45.472;-122.822;2022-09-09T13:16:28;12.50;94.40
6375;DHT22;35400;45.472;-122.822;2022-09-09T13:19:16;12.50;94.60
6375;DHT22;35400;45.472;-122.822;2022-09-09T13:21:43;12.50;94.90
6375;DHT22;35400;45.472;-122.822;2022-09-09T13:24:32;12.50;95.10
6375;DHT22;35400;45.472;-122.822;2022-09-09T13:27:05;12.40;95.20
6375;DHT22;35400;45.472;-122.822;2022-09-09T13:29:52;12.50;95.40
6375;DHT22;35400;45.472;-122.822;2022-09-09T13:32:24;12.40;95.60
6375;DHT22;35400;45.472;-122.822;2022-09-09T13:35:00;12.40;95.80
6375;DHT22;35400;45.472;-122.822;2022-09-09T13:37:38;12.30;96.10
6375;DHT22;35400;45.472;-122.822;2022-09-09T13:40:17;12.30;96.30
6375;DHT22;35400;45.472;-122.822;2022-09-09T13:42:44;12.30;96.60
6375;DHT22;35400;45.472;-122.822;2022-09-09T13:45:23;12.30;96.90
6375;DHT22;35400;45.472;-122.822;2022-09-09T13:47:56;12.30;97.10
6375;DHT22;35400;45.472;-122.822;2022-09-09T13:50:25;12.30;97.40
6375;DHT22;35400;45.472;-122.822;2022-09-09T13:52:56;12.30;97.60
6375;DHT22;35400;45.472;-122.822;2022-09-09T13:55:28;12.30;97.80
6375;DHT22;35400;45.472;-122.822;2022-09-09T13:57:59;12.30;98.20
6375;DHT22;35400;45.472;-122.822;2022-09-09T14:00:30;12.20;98.50
6375;DHT22;35400;45.472;-122.822;2022-09-09T14:02:57;12.20;98.80
6375;DHT22;35400;45.472;-122.822;2022-09-09T14:05:27;12.20;99.00
6375;DHT22;35400;45.472;-122.822;2022-09-09T14:07:54;12.20;99.30
6375;DHT22;35400;45.472;-122.822;2022-09-09T14:10:21;12.20;99.40
6375;DHT22;35400;45.472;-122.822;2022-09-09T14:12:48;12.30;99.70
6375;DHT22;35400;45.472;-122.822;2022-09-09T14:15:15;12.30;99.90
6375;DHT22;35400;45.472;-122.822;2022-09-09T14:17:42;12.30;99.90
6375;DHT22;35400;45.472;-122.822;2022-09-09T14:20:10;12.30;99.90
6375;DHT22;35400;45.472;-122.822;2022-09-09T14:22:38;12.30;99.90
6375;DHT22;35400;45.472;-122.822;2022-09-09T14:25:08;12.40;99.90
6375;DHT22;35400;45.472;-122.822;2022-09-09T14:27:35;12.40;99.90
6375;DHT22;35400;45.472;-122.822;2022-09-09T14:30:02;12.50;99.90
6375;DHT22;35400;45.472;-122.822;2022-09-09T14:32:28;12.50;99.90
6375;DHT22;35400;45.472;-122.822;2022-09-09T14:34:55;12.60;99.90
6375;DHT22;35400;45.472;-122.822;2022-09-09T14:37:22;12.70;99.90
6375;DHT22;35400;45.472;-122.822;2022-09-09T14:39:50;12.80;99.90
6375;DHT22;35400;45.472;-122.822;2022-09-09T14:42:17;12.90;99.90
6375;DHT22;35400;45.472;-122.822;2022-09-09T14:44:43;13.00;99.90
6375;DHT22;35400;45.472;-122.822;2022-09-09T14:47:10;13.10;99.90
6375;DHT22;35400;45.472;-122.822;2022-09-09T14:49:37;13.20;99.90
6375;DHT22;35400;45.472;-122.822;2022-09-09T14:52:04;13.40;99.90
6375;DHT22;35400;45.472;-122.822;2022-09-09T14:54:31;13.50;99.90
6375;DHT22;35400;45.472;-122.822;2022-09-09T14:56:59;13.60;99.90
6375;DHT22;35400;45.472;-122.822;2022-09-09T14:59:25;13.70;99.90
6375;DHT22;35400;45.472;-122.822;2022-09-09T15:01:53;13.80;99.90
6375;DHT22;35400;45.472;-122.822;2022-09-09T15:04:20;13.90;99.90
6375;DHT22;35400;45.472;-122.822;2022-09-09T15:06:46;14.10;99.90
6375;DHT22;35400;45.472;-122.822;2022-09-09T15:09:15;14.20;99.90
6375;DHT22;35400;45.472;-122.822;2022-09-09T15:11:42;14.30;99.90
6375;DHT22;35400;45.472;-122.822;2022-09-09T15:14:09;14.40;99.90
6375;DHT22;35400;45.472;-122.822;2022-09-09T15:16:39;14.50;99.90
6375;DHT22;35400;45.472;-122.822;2022-09-09T15:19:06;14.60;99.90
6375;DHT22;35400;45.472;-122.822;2022-09-09T15:21:35;14.80;99.90
6375;DHT22;35400;45.472;-122.822;2022-09-09T15:24:03;14.90;99.90
6375;DHT22;35400;45.472;-122.822;2022-09-09T15:26:30;15.10;99.80
6375;DHT22;35400;45.472;-122.822;2022-09-09T15:28:58;15.30;99.40
6375;DHT22;35400;45.472;-122.822;2022-09-09T15:31:28;15.50;99.10
6375;DHT22;35400;45.472;-122.822;2022-09-09T15:34:00;15.70;98.70
6375;DHT22;35400;45.472;-122.822;2022-09-09T15:36:29;15.80;98.20
6375;DHT22;35400;45.472;-122.822;2022-09-09T15:38:56;16.00;97.70
6375;DHT22;35400;45.472;-122.822;2022-09-09T15:41:24;16.20;97.20
6375;DHT22;35400;45.472;-122.822;2022-09-09T15:43:54;16.40;96.60
6375;DHT22;35400;45.472;-122.822;2022-09-09T15:46:46;16.60;96.20
6375;DHT22;35400;45.472;-122.822;2022-09-09T15:49:17;16.70;95.60
6375;DHT22;35400;45.472;-122.822;2022-09-09T15:51:47;17.00;95.20
6375;DHT22;35400;45.472;-122.822;2022-09-09T15:54:18;17.10;94.70
6375;DHT22;35400;45.472;-122.822;2022-09-09T15:56:49;17.30;94.10
6375;DHT22;35400;45.472;-122.822;2022-09-09T15:59:16;17.50;93.70
6375;DHT22;35400;45.472;-122.822;2022-09-09T16:01:43;17.70;93.30
6375;DHT22;35400;45.472;-122.822;2022-09-09T16:04:11;17.90;92.80
6375;DHT22;35400;45.472;-122.822;2022-09-09T16:06:38;18.20;92.20
6375;DHT22;35400;45.472;-122.822;2022-09-09T16:09:06;18.50;91.80
6375;DHT22;35400;45.472;-122.822;2022-09-09T16:11:35;18.70;91.10
6375;DHT22;35400;45.472;-122.822;2022-09-09T16:14:03;19.00;90.30
6375;DHT22;35400;45.472;-122.822;2022-09-09T16:16:31;19.30;90.00
6375;DHT22;35400;45.472;-122.822;2022-09-09T16:19:05;19.70;88.90
6375;DHT22;35400;45.472;-122.822;2022-09-09T16:21:45;20.10;87.90
6375;DHT22;35400;45.472;-122.822;2022-09-09T16:26:45;21.40;77.10
6375;DHT22;35400;45.472;-122.822;2022-09-09T16:29:13;23.00;74.70
6375;DHT22;35400;45.472;-122.822;2022-09-09T16:31:41;23.50;73.40
6375;DHT22;35400;45.472;-122.822;2022-09-09T16:34:08;24.60;64.50
6375;DHT22;35400;45.472;-122.822;2022-09-09T16:36:37;24.90;62.70
6375;DHT22;35400;45.472;-122.822;2022-09-09T16:39:07;24.90;61.40
6375;DHT22;35400;45.472;-122.822;2022-09-09T16:41:36;24.60;59.30
6375;DHT22;35400;45.472;-122.822;2022-09-09T16:44:09;24.50;59.70
6375;DHT22;35400;45.472;-122.822;2022-09-09T16:46:39;24.50;59.90
6375;DHT22;35400;45.472;-122.822;2022-09-09T16:49:08;24.50;58.50
6375;DHT22;35400;45.472;-122.822;2022-09-09T16:51:40;24.50;57.70
6375;DHT22;35400;45.472;-122.822;2022-09-09T16:54:09;24.40;55.80
6375;DHT22;35400;45.472;-122.822;2022-09-09T16:56:38;24.30;55.90
6375;DHT22;35400;45.472;-122.822;2022-09-09T16:59:10;24.00;55.90
6375;DHT22;35400;45.472;-122.822;2022-09-09T17:01:39;23.80;56.20
6375;DHT22;35400;45.472;-122.822;2022-09-09T17:04:12;23.80;58.00
6375;DHT22;35400;45.472;-122.822;2022-09-09T17:06:39;23.80;56.40
6375;DHT22;35400;45.472;-122.822;2022-09-09T17:09:09;23.80;57.20
6375;DHT22;35400;45.472;-122.822;2022-09-09T17:11:39;23.80;55.00
6375;DHT22;35400;45.472;-122.822;2022-09-09T17:14:08;23.80;56.20
6375;DHT22;35400;45.472;-122.822;2022-09-09T17:16:36;23.90;56.80
6375;DHT22;35400;45.472;-122.822;2022-09-09T17:19:06;23.90;57.30
6375;DHT22;35400;45.472;-122.822;2022-09-09T17:21:34;24.00;56.40
6375;DHT22;35400;45.472;-122.822;2022-09-09T17:24:02;24.10;56.60
6375;DHT22;35400;45.472;-122.822;2022-09-09T17:26:31;24.20;56.50
6375;DHT22;35400;45.472;-122.822;2022-09-09T17:29:00;24.30;55.40
6375;DHT22;35400;45.472;-122.822;2022-09-09T17:31:28;24.40;55.50
6375;DHT22;35400;45.472;-122.822;2022-09-09T17:33:55;24.40;55.00
6375;DHT22;35400;45.472;-122.822;2022-09-09T17:36:29;24.50;53.50
6375;DHT22;35400;45.472;-122.822;2022-09-09T17:38:57;24.50;54.40
6375;DHT22;35400;45.472;-122.822;2022-09-09T17:41:32;24.60;55.00
6375;DHT22;35400;45.472;-122.822;2022-09-09T17:43:59;24.60;54.80
6375;DHT22;35400;45.472;-122.822;2022-09-09T17:46:36;24.70;54.00
6375;DHT22;35400;45.472;-122.822;2022-09-09T17:49:06;24.70;54.30
6375;DHT22;35400;45.472;-122.822;2022-09-09T17:51:34;24.80;53.60
6375;DHT22;35400;45.472;-122.822;2022-09-09T17:54:04;24.90;53.50
6375;DHT22;35400;45.472;-122.822;2022-09-09T17:56:34;25.00;53.30